Time;durP1;ratioP1;P1;durP2;ratioP2;P2;SDS_P1;SDS_P2;PMS_P1;PMS_P2;Temp;Humidity;BMP_temperature;BMP_pressure;BME280_temperature;BME280_humidity;BME280_pressure;Samples;Min_cycle;Max_cycle;Signal;HPM_P1;HPM_P2
2020/12/29 00:00:56;;;;;;;15.53;11.77;;;;;;;;;;5052215;28;20259;-76
2020/12/29 00:03:21;;;;;;;17.37;13.37;;;;;;;;;;5048632;28;20197;-76
2020/12/29 00:05:46;;;;;;;16.80;13.10;;;;;;;;;;5050274;28;20176;-76
2020/12/29 00:08:12;;;;;;;18.40;13.13;;;;;;;;;;5045594;28;20181;-77
2020/12/29 00:10:37;;;;;;;17.67;12.70;;;;;;;;;;5044112;28;20636;-76
2020/12/29 00:13:03;;;;;;;17.67;13.00;;;;;;;;;;5041469;28;20212;-77
2020/12/29 00:15:28;;;;;;;17.03;12.53;;;;;;;;;;5045173;28;20709;-76
2020/12/29 00:17:53;;;;;;;17.13;11.57;;;;;;;;;;5045617;28;20643;-77
2020/12/29 00:20:18;;;;;;;16.10;11.73;;;;;;;;;;5044335;28;20173;-76
2020/12/29 00:22:43;;;;;;;14.02;10.57;;;;;;;;;;5041222;28;20264;-77
2020/12/29 00:25:08;;;;;;;13.40;10.60;;;;;;;;;;5042115;28;20266;-77
2020/12/29 00:27:34;;;;;;;14.43;11.23;;;;;;;;;;5042351;28;20269;-77
2020/12/29 00:29:59;;;;;;;15.23;11.00;;;;;;;;;;5044500;28;20170;-76
2020/12/29 00:32:24;;;;;;;16.10;12.07;;;;;;;;;;5041844;28;21600;-77
2020/12/29 00:34:49;;;;;;;15.67;11.50;;;;;;;;;;5043489;28;20208;-76
2020/12/29 00:37:14;;;;;;;16.00;12.10;;;;;;;;;;5043618;28;20224;-77
2020/12/29 00:39:40;;;;;;;18.63;13.20;;;;;;;;;;5044818;28;20217;-77
2020/12/29 00:42:05;;;;;;;15.90;12.57;;;;;;;;;;5048869;28;20276;-76
2020/12/29 00:44:30;;;;;;;18.17;12.90;;;;;;;;;;5048123;28;20205;-76
2020/12/29 00:46:55;;;;;;;16.27;12.80;;;;;;;;;;5050691;28;20722;-76
2020/12/29 00:49:20;;;;;;;19.67;13.50;;;;;;;;;;5048844;28;20190;-77
2020/12/29 00:51:46;;;;;;;17.00;13.18;;;;;;;;;;5049790;28;20187;-76
2020/12/29 00:54:11;;;;;;;18.37;12.43;;;;;;;;;;5046732;28;20698;-77
2020/12/29 00:56:36;;;;;;;20.10;14.57;;;;;;;;;;5050075;28;20260;-77
2020/12/29 00:59:01;;;;;;;16.50;12.38;;;;;;;;;;5048850;28;20192;-77
2020/12/29 01:01:26;;;;;;;17.88;13.32;;;;;;;;;;5048765;28;20208;-76
2020/12/29 01:03:51;;;;;;;17.77;12.80;;;;;;;;;;5049470;28;20212;-76
2020/12/29 01:06:24;;;;;;;17.70;13.05;;;;;;;;;;5049811;28;20190;-76
2020/12/29 01:08:49;;;;;;;18.83;14.27;;;;;;;;;;5048198;28;20190;-76
2020/12/29 01:11:14;;;;;;;18.35;13.43;;;;;;;;;;5048651;28;20551;-76
2020/12/29 01:13:39;;;;;;;16.23;12.50;;;;;;;;;;5046967;28;20246;-76
2020/12/29 01:16:05;;;;;;;17.63;12.33;;;;;;;;;;5046570;28;20230;-76
2020/12/29 01:18:30;;;;;;;16.73;12.77;;;;;;;;;;5045409;28;20208;-76
2020/12/29 01:20:55;;;;;;;16.45;12.65;;;;;;;;;;5049966;28;20239;-76
2020/12/29 01:23:20;;;;;;;16.45;12.65;;;;;;;;;;5049448;28;20204;-76
2020/12/29 01:25:45;;;;;;;17.07;12.90;;;;;;;;;;5049016;28;20666;-76
2020/12/29 01:28:11;;;;;;;16.27;12.47;;;;;;;;;;5048662;28;20177;-77
2020/12/29 01:30:37;;;;;;;17.27;13.53;;;;;;;;;;5045854;28;20186;-76
2020/12/29 01:33:03;;;;;;;17.00;13.57;;;;;;;;;;5047700;28;20193;-77
2020/12/29 01:35:28;;;;;;;17.27;13.00;;;;;;;;;;5045022;28;20280;-76
2020/12/29 01:37:53;;;;;;;18.10;13.83;;;;;;;;;;5049436;28;20647;-76
2020/12/29 01:40:18;;;;;;;15.45;12.45;;;;;;;;;;5042569;28;20178;-77
2020/12/29 01:42:44;;;;;;;17.80;14.03;;;;;;;;;;5048016;28;20206;-76
2020/12/29 01:45:12;;;;;;;16.87;13.23;;;;;;;;;;5048893;28;20566;-76
2020/12/29 01:47:37;;;;;;;20.60;15.70;;;;;;;;;;5049334;28;20189;-77
2020/12/29 01:50:08;;;;;;;16.80;13.87;;;;;;;;;;5046652;28;20185;-76
2020/12/29 01:52:34;;;;;;;19.27;14.57;;;;;;;;;;5049210;28;20182;-76
2020/12/29 01:54:59;;;;;;;18.00;14.60;;;;;;;;;;5050274;28;20263;-76
2020/12/29 01:57:25;;;;;;;18.67;13.80;;;;;;;;;;5045519;28;20265;-76
2020/12/29 01:59:50;;;;;;;19.97;14.87;;;;;;;;;;5048427;28;20247;-75
2020/12/29 02:02:15;;;;;;;19.03;14.60;;;;;;;;;;5040775;28;20265;-76
2020/12/29 02:04:41;;;;;;;19.13;14.73;;;;;;;;;;5049908;28;20205;-76
2020/12/29 02:07:06;;;;;;;19.33;14.40;;;;;;;;;;5046731;28;20205;-76
2020/12/29 02:09:31;;;;;;;20.87;15.97;;;;;;;;;;5048910;28;20182;-76
2020/12/29 02:11:56;;;;;;;19.90;15.40;;;;;;;;;;5049051;28;20662;-76
2020/12/29 02:14:21;;;;;;;19.20;14.90;;;;;;;;;;5045121;28;20303;-76
2020/12/29 02:16:47;;;;;;;20.93;15.73;;;;;;;;;;5046554;28;20193;-77
2020/12/29 02:19:12;;;;;;;20.33;15.90;;;;;;;;;;5049142;28;20185;-76
2020/12/29 02:21:38;;;;;;;20.47;15.30;;;;;;;;;;5050571;28;20197;-76
2020/12/29 02:24:04;;;;;;;20.33;15.27;;;;;;;;;;5049884;28;20197;-76
2020/12/29 02:26:30;;;;;;;22.37;16.87;;;;;;;;;;5048267;28;20283;-76
2020/12/29 02:28:59;;;;;;;20.70;14.70;;;;;;;;;;5052658;28;20174;-76
2020/12/29 02:31:24;;;;;;;19.87;15.17;;;;;;;;;;5051235;28;20352;-77
2020/12/29 02:33:49;;;;;;;20.90;15.83;;;;;;;;;;5047487;28;20725;-76
2020/12/29 02:36:14;;;;;;;20.23;14.93;;;;;;;;;;5048819;28;20678;-76
2020/12/29 02:38:39;;;;;;;19.80;14.77;;;;;;;;;;5052169;28;20174;-76
2020/12/29 02:41:05;;;;;;;20.03;14.80;;;;;;;;;;5048870;28;20726;-76
2020/12/29 02:43:31;;;;;;;20.50;15.67;;;;;;;;;;5050953;28;20204;-76
2020/12/29 02:45:56;;;;;;;20.63;15.60;;;;;;;;;;5050728;28;20182;-76
2020/12/29 02:48:21;;;;;;;22.27;16.23;;;;;;;;;;5051749;28;20247;-76
2020/12/29 02:50:46;;;;;;;21.73;15.70;;;;;;;;;;5050685;28;20224;-76
2020/12/29 02:53:11;;;;;;;22.77;15.10;;;;;;;;;;5051825;28;20556;-76
2020/12/29 02:55:36;;;;;;;20.40;15.20;;;;;;;;;;5050907;28;20289;-76
2020/12/29 02:58:02;;;;;;;22.30;16.03;;;;;;;;;;5046192;28;20702;-76
2020/12/29 03:00:27;;;;;;;21.00;14.63;;;;;;;;;;5050523;28;20177;-76
2020/12/29 03:02:52;;;;;;;20.43;14.57;;;;;;;;;;5051512;28;20614;-76
2020/12/29 03:05:17;;;;;;;19.37;14.57;;;;;;;;;;5049363;28;20193;-76
2020/12/29 03:07:42;;;;;;;20.17;15.20;;;;;;;;;;5051852;28;20213;-77
2020/12/29 03:10:08;;;;;;;20.33;15.20;;;;;;;;;;5051642;28;20643;-76
2020/12/29 03:12:36;;;;;;;19.87;14.87;;;;;;;;;;5051595;28;20186;-76
2020/12/29 03:15:01;;;;;;;20.17;14.60;;;;;;;;;;5050203;28;20205;-76
2020/12/29 03:17:26;;;;;;;21.40;15.63;;;;;;;;;;5049504;28;20600;-76
2020/12/29 03:19:51;;;;;;;20.37;15.17;;;;;;;;;;5050744;28;20182;-76
2020/12/29 03:22:17;;;;;;;27.70;16.03;;;;;;;;;;5051695;28;20182;-76
2020/12/29 03:24:42;;;;;;;20.10;14.90;;;;;;;;;;5048550;28;20209;-76
2020/12/29 03:27:07;;;;;;;21.93;15.83;;;;;;;;;;5050508;28;20606;-76
2020/12/29 03:29:32;;;;;;;20.93;15.13;;;;;;;;;;5051328;28;20200;-76
2020/12/29 03:31:57;;;;;;;19.70;14.67;;;;;;;;;;5048449;28;20678;-76
2020/12/29 03:34:27;;;;;;;23.50;16.27;;;;;;;;;;5051344;28;20214;-76
2020/12/29 03:36:53;;;;;;;20.60;14.90;;;;;;;;;;5045001;28;20178;-77
2020/12/29 03:39:18;;;;;;;22.00;16.03;;;;;;;;;;5050587;28;20251;-76
2020/12/29 03:41:43;;;;;;;23.50;15.90;;;;;;;;;;5049944;28;20181;-75
2020/12/29 03:44:09;;;;;;;22.90;16.27;;;;;;;;;;5050507;28;20194;-76
2020/12/29 03:46:34;;;;;;;24.23;16.07;;;;;;;;;;5049205;28;20883;-76
2020/12/29 03:48:59;;;;;;;22.27;14.90;;;;;;;;;;5049646;28;20184;-76
2020/12/29 03:51:24;;;;;;;24.17;15.87;;;;;;;;;;5049853;28;20179;-76
2020/12/29 03:53:49;;;;;;;23.60;16.73;;;;;;;;;;5049639;28;20201;-76
2020/12/29 03:56:15;;;;;;;22.40;15.33;;;;;;;;;;5050973;28;20686;-76
2020/12/29 03:58:40;;;;;;;23.13;15.87;;;;;;;;;;5048472;28;20185;-76
2020/12/29 04:01:05;;;;;;;24.57;16.27;;;;;;;;;;5045049;28;20198;-76
2020/12/29 04:03:31;;;;;;;23.10;16.03;;;;;;;;;;5050919;28;20190;-76
2020/12/29 04:05:56;;;;;;;22.77;16.30;;;;;;;;;;5050255;28;20201;-76
2020/12/29 04:08:21;;;;;;;25.90;16.37;;;;;;;;;;5051712;28;20220;-76
2020/12/29 04:10:47;;;;;;;25.07;15.50;;;;;;;;;;5049856;28;20185;-76
2020/12/29 04:13:12;;;;;;;22.87;15.83;;;;;;;;;;5043656;28;20194;-76
2020/12/29 04:15:37;;;;;;;24.73;17.60;;;;;;;;;;5048942;28;20764;-76
2020/12/29 04:18:02;;;;;;;24.83;16.27;;;;;;;;;;5050796;28;20178;-76
2020/12/29 04:20:28;;;;;;;25.67;16.97;;;;;;;;;;5045965;28;20201;-76
2020/12/29 04:22:53;;;;;;;23.47;16.43;;;;;;;;;;5046821;28;20283;-74
2020/12/29 04:25:18;;;;;;;25.00;16.70;;;;;;;;;;5049994;28;20170;-75
2020/12/29 04:27:43;;;;;;;25.37;17.07;;;;;;;;;;5051310;28;20217;-74
2020/12/29 04:30:09;;;;;;;23.53;17.00;;;;;;;;;;5043906;28;20276;-74
2020/12/29 04:32:35;;;;;;;23.20;16.50;;;;;;;;;;5050589;28;20213;-74
2020/12/29 04:35:00;;;;;;;25.13;15.87;;;;;;;;;;5047820;28;20229;-77
2020/12/29 04:37:25;;;;;;;25.13;18.23;;;;;;;;;;5050672;28;20284;-76
2020/12/29 04:39:51;;;;;;;24.23;16.33;;;;;;;;;;5042727;28;20629;-76
2020/12/29 04:42:16;;;;;;;26.23;16.83;;;;;;;;;;5042595;28;20178;-75
2020/12/29 04:44:42;;;;;;;24.57;16.77;;;;;;;;;;5043657;28;20201;-76
2020/12/29 04:47:10;;;;;;;26.10;17.73;;;;;;;;;;5042731;28;20225;-75
2020/12/29 04:49:36;;;;;;;26.97;17.53;;;;;;;;;;5041906;28;20648;-75
2020/12/29 04:52:02;;;;;;;24.70;16.87;;;;;;;;;;5045326;28;20184;-75
2020/12/29 04:54:30;;;;;;;23.70;17.03;;;;;;;;;;5050444;28;20637;-76
2020/12/29 04:56:56;;;;;;;25.07;17.47;;;;;;;;;;5049919;28;20181;-75
2020/12/29 04:59:21;;;;;;;26.43;16.80;;;;;;;;;;5047540;28;20251;-75
2020/12/29 05:01:47;;;;;;;25.47;17.50;;;;;;;;;;5046710;28;20737;-75
2020/12/29 05:04:13;;;;;;;24.30;16.93;;;;;;;;;;5049052;28;20204;-75
2020/12/29 05:06:38;;;;;;;23.73;15.90;;;;;;;;;;5046809;28;20170;-76
2020/12/29 05:09:03;;;;;;;27.17;17.13;;;;;;;;;;5048437;28;20729;-75
2020/12/29 05:11:32;;;;;;;25.60;16.63;;;;;;;;;;5048530;28;20185;-75
2020/12/29 05:13:58;;;;;;;26.10;17.93;;;;;;;;;;5050065;28;20757;-75
2020/12/29 05:16:23;;;;;;;23.07;15.87;;;;;;;;;;5048007;28;20686;-75
2020/12/29 05:18:49;;;;;;;23.60;16.50;;;;;;;;;;5049307;28;20220;-76
2020/12/29 05:21:14;;;;;;;24.60;16.90;;;;;;;;;;5047807;28;20280;-75
2020/12/29 05:23:39;;;;;;;22.70;14.77;;;;;;;;;;5050691;28;20302;-75
2020/12/29 05:26:04;;;;;;;24.27;16.13;;;;;;;;;;5048605;28;20218;-76
2020/12/29 05:28:30;;;;;;;25.87;17.43;;;;;;;;;;5047268;28;20186;-75
2020/12/29 05:30:59;;;;;;;22.37;15.70;;;;;;;;;;5045068;28;20193;-76
2020/12/29 05:33:24;;;;;;;23.37;15.87;;;;;;;;;;5047383;28;20585;-75
2020/12/29 05:35:50;;;;;;;24.07;16.10;;;;;;;;;;5046723;28;20193;-76
2020/12/29 05:38:16;;;;;;;25.43;17.33;;;;;;;;;;5047259;28;20178;-76
2020/12/29 05:40:43;;;;;;;24.80;16.60;;;;;;;;;;5046774;28;20177;-75
2020/12/29 05:43:09;;;;;;;25.67;16.40;;;;;;;;;;5048493;28;20201;-75
2020/12/29 05:45:36;;;;;;;22.83;16.00;;;;;;;;;;5046118;28;20178;-76
2020/12/29 05:48:02;;;;;;;23.60;15.93;;;;;;;;;;5047414;28;20178;-75
2020/12/29 05:50:28;;;;;;;23.30;15.70;;;;;;;;;;5046606;28;20174;-75
2020/12/29 05:52:54;;;;;;;24.40;16.30;;;;;;;;;;5047534;28;20675;-75
2020/12/29 05:55:22;;;;;;;23.73;16.33;;;;;;;;;;5048533;28;20209;-75
2020/12/29 05:57:57;;;;;;;24.67;16.00;;;;;;;;;;5051107;28;20228;-75
2020/12/29 06:00:26;;;;;;;22.63;14.97;;;;;;;;;;5049454;28;20773;-76
2020/12/29 06:02:53;;;;;;;24.60;16.23;;;;;;;;;;5054029;28;20255;-75
2020/12/29 06:05:18;;;;;;;23.73;16.20;;;;;;;;;;5051788;28;20276;-75
2020/12/29 06:07:45;;;;;;;24.40;15.30;;;;;;;;;;5053640;28;20618;-75
2020/12/29 06:10:12;;;;;;;22.63;15.33;;;;;;;;;;5050828;28;20268;-75
2020/12/29 06:12:41;;;;;;;25.47;18.00;;;;;;;;;;5052823;28;20178;-76
2020/12/29 06:15:08;;;;;;;24.77;16.07;;;;;;;;;;5051733;28;20582;-75
2020/12/29 06:17:40;;;;;;;22.60;15.23;;;;;;;;;;5049219;28;20181;-75
2020/12/29 06:20:05;;;;;;;22.50;14.97;;;;;;;;;;5052857;28;20564;-75
2020/12/29 06:22:30;;;;;;;23.37;15.53;;;;;;;;;;5051067;28;20177;-76
2020/12/29 06:24:56;;;;;;;25.00;15.97;;;;;;;;;;5047472;28;20205;-75
2020/12/29 06:27:26;;;;;;;26.17;17.57;;;;;;;;;;5052301;28;20226;-75
2020/12/29 06:29:53;;;;;;;22.40;15.90;;;;;;;;;;5044919;28;20189;-75
2020/12/29 06:32:19;;;;;;;21.83;15.07;;;;;;;;;;5049977;28;20186;-75
2020/12/29 06:34:44;;;;;;;24.57;15.83;;;;;;;;;;5051454;28;20209;-76
2020/12/29 06:37:25;;;;;;;23.00;15.90;;;;;;;;;;5052513;28;20188;-75
2020/12/29 06:39:57;;;;;;;24.60;16.73;;;;;;;;;;5049019;28;20275;-75
2020/12/29 06:42:22;;;;;;;23.60;15.27;;;;;;;;;;5051360;28;20212;-75
2020/12/29 06:44:51;;;;;;;23.70;15.40;;;;;;;;;;5042167;28;20663;-76
2020/12/29 06:47:16;;;;;;;26.83;16.40;;;;;;;;;;5050480;28;20190;-75
2020/12/29 06:49:43;;;;;;;25.40;16.23;;;;;;;;;;5049418;28;20542;-75
2020/12/29 06:52:18;;;;;;;21.30;14.50;;;;;;;;;;5053339;28;20173;-75
2020/12/29 06:54:44;;;;;;;25.07;15.40;;;;;;;;;;5047630;28;20287;-74
2020/12/29 06:57:09;;;;;;;21.93;15.00;;;;;;;;;;5046172;28;20327;-75
2020/12/29 06:59:37;;;;;;;25.57;16.57;;;;;;;;;;5051821;28;20174;-75
2020/12/29 07:02:03;;;;;;;24.40;15.40;;;;;;;;;;5050096;28;20177;-75
2020/12/29 07:04:28;;;;;;;20.80;15.03;;;;;;;;;;5053473;28;20204;-75
2020/12/29 07:06:53;;;;;;;24.73;16.47;;;;;;;;;;5058290;28;20177;-75
2020/12/29 07:09:18;;;;;;;23.90;14.93;;;;;;;;;;5057367;28;20671;-75
2020/12/29 07:12:04;;;;;;;22.65;15.73;;;;;;;;;;5056812;28;20636;-75
2020/12/29 07:14:33;;;;;;;23.33;15.53;;;;;;;;;;5057262;28;20213;-75
2020/12/29 07:16:59;;;;;;;24.60;15.17;;;;;;;;;;5060265;28;20174;-75
2020/12/29 07:19:24;;;;;;;23.60;15.20;;;;;;;;;;5055719;28;20181;-75
2020/12/29 07:21:51;;;;;;;20.40;14.23;;;;;;;;;;5054125;28;20181;-75
2020/12/29 07:24:17;;;;;;;22.23;14.33;;;;;;;;;;5050588;28;20201;-75
2020/12/29 07:26:42;;;;;;;24.63;16.13;;;;;;;;;;5052213;28;20173;-75
2020/12/29 07:29:07;;;;;;;23.57;15.03;;;;;;;;;;5047031;28;20854;-75
2020/12/29 07:31:33;;;;;;;24.47;14.80;;;;;;;;;;5049972;28;20173;-75
2020/12/29 07:34:00;;;;;;;24.47;16.87;;;;;;;;;;5050241;28;20251;-75
2020/12/29 07:36:25;;;;;;;28.23;15.57;;;;;;;;;;5050033;28;20229;-75
2020/12/29 07:38:51;;;;;;;24.00;16.33;;;;;;;;;;5050343;28;20647;-75
2020/12/29 07:41:16;;;;;;;24.33;16.67;;;;;;;;;;5046890;28;20593;-75
2020/12/29 07:43:42;;;;;;;26.13;16.67;;;;;;;;;;5050309;28;20198;-75
2020/12/29 07:46:07;;;;;;;26.77;17.17;;;;;;;;;;5050600;28;20186;-75
2020/12/29 07:48:32;;;;;;;27.53;16.87;;;;;;;;;;5047395;28;20206;-75
2020/12/29 07:50:58;;;;;;;27.53;16.93;;;;;;;;;;5051188;28;20189;-75
2020/12/29 07:53:23;;;;;;;28.33;18.13;;;;;;;;;;5050665;28;20288;-75
2020/12/29 07:55:51;;;;;;;27.93;16.37;;;;;;;;;;5050039;28;20356;-75
2020/12/29 07:58:16;;;;;;;26.70;17.40;;;;;;;;;;5047873;28;20182;-75
2020/12/29 08:00:41;;;;;;;27.80;17.07;;;;;;;;;;5049797;28;20178;-74
2020/12/29 08:03:06;;;;;;;28.73;17.20;;;;;;;;;;5041817;28;20200;-74
2020/12/29 08:05:32;;;;;;;26.97;16.47;;;;;;;;;;5047200;28;20265;-74
2020/12/29 08:08:04;;;;;;;25.83;17.03;;;;;;;;;;5051376;28;20500;-75
2020/12/29 08:10:30;;;;;;;25.83;16.53;;;;;;;;;;5044567;28;20177;-75
2020/12/29 08:12:56;;;;;;;29.03;16.90;;;;;;;;;;5044455;28;20206;-75
2020/12/29 08:15:23;;;;;;;28.83;17.63;;;;;;;;;;5047107;28;20208;-75
2020/12/29 08:17:58;;;;;;;27.03;16.77;;;;;;;;;;5042619;28;20178;-75
2020/12/29 08:20:23;;;;;;;23.60;15.50;;;;;;;;;;5049375;28;20255;-74
2020/12/29 08:22:48;;;;;;;24.70;16.27;;;;;;;;;;5050342;28;20228;-75
2020/12/29 08:25:14;;;;;;;25.57;16.17;;;;;;;;;;5049197;28;20867;-75
2020/12/29 08:27:41;;;;;;;24.33;15.23;;;;;;;;;;5043451;28;20205;-74
2020/12/29 08:30:06;;;;;;;24.17;15.93;;;;;;;;;;5048870;28;20187;-75
2020/12/29 08:32:33;;;;;;;25.97;15.30;;;;;;;;;;5049688;28;20264;-75
2020/12/29 08:34:58;;;;;;;24.13;15.37;;;;;;;;;;5048612;28;20213;-75
2020/12/29 08:37:24;;;;;;;20.47;13.70;;;;;;;;;;5043755;28;20185;-75
2020/12/29 08:40:03;;;;;;;20.90;14.87;;;;;;;;;;5049705;28;20243;-75
2020/12/29 08:42:30;;;;;;;22.40;14.83;;;;;;;;;;5040964;28;20249;-75
2020/12/29 08:44:56;;;;;;;23.07;15.17;;;;;;;;;;5051171;28;20625;-75
2020/12/29 08:47:21;;;;;;;22.03;15.00;;;;;;;;;;5049599;28;20185;-75
2020/12/29 08:49:46;;;;;;;24.27;16.87;;;;;;;;;;5048870;28;20235;-75
2020/12/29 08:52:11;;;;;;;23.00;15.90;;;;;;;;;;5050026;28;20280;-75
2020/12/29 08:54:38;;;;;;;23.47;15.83;;;;;;;;;;5050999;28;20206;-75
2020/12/29 08:57:05;;;;;;;23.57;15.90;;;;;;;;;;5045853;28;21916;-75
2020/12/29 08:59:34;;;;;;;21.70;14.73;;;;;;;;;;5048920;28;20169;-75
2020/12/29 09:01:59;;;;;;;22.03;14.87;;;;;;;;;;5051403;28;20177;-75
2020/12/29 09:04:36;;;;;;;22.50;15.17;;;;;;;;;;5049384;28;20198;-75
2020/12/29 09:07:08;;;;;;;24.50;14.00;;;;;;;;;;5043913;28;20667;-75
2020/12/29 09:09:34;;;;;;;19.70;13.87;;;;;;;;;;5049074;28;20169;-74
2020/12/29 09:12:08;;;;;;;22.20;15.17;;;;;;;;;;5048925;28;20308;-75
2020/12/29 09:14:34;;;;;;;21.43;13.83;;;;;;;;;;5046186;28;20209;-74
2020/12/29 09:17:03;;;;;;;19.20;12.83;;;;;;;;;;5045679;28;20178;-75
2020/12/29 09:19:28;;;;;;;20.77;13.77;;;;;;;;;;5050561;28;20655;-75
2020/12/29 09:22:12;;;;;;;21.80;13.93;;;;;;;;;;5050842;28;20173;-76
2020/12/29 09:24:49;;;;;;;17.03;12.73;;;;;;;;;;5044675;28;20197;-76
2020/12/29 09:27:25;;;;;;;22.00;13.83;;;;;;;;;;5045519;28;20190;-76
2020/12/29 09:29:50;;;;;;;17.43;12.47;;;;;;;;;;5048182;28;20223;-76
2020/12/29 09:32:17;;;;;;;21.27;15.03;;;;;;;;;;5053515;28;20205;-76
2020/12/29 09:34:42;;;;;;;18.80;13.40;;;;;;;;;;5052643;28;20254;-75
2020/12/29 09:37:08;;;;;;;17.63;12.70;;;;;;;;;;5051791;28;20185;-75
2020/12/29 09:39:33;;;;;;;18.03;12.70;;;;;;;;;;5053004;28;20173;-76
2020/12/29 09:41:58;;;;;;;15.80;11.67;;;;;;;;;;5053241;28;20677;-76
2020/12/29 09:44:23;;;;;;;18.43;12.47;;;;;;;;;;5049564;28;20273;-75
2020/12/29 09:46:49;;;;;;;16.13;11.50;;;;;;;;;;5052370;28;20169;-76
2020/12/29 09:49:14;;;;;;;15.80;12.00;;;;;;;;;;5051472;28;20181;-76
2020/12/29 09:51:39;;;;;;;16.37;12.03;;;;;;;;;;5053692;28;20193;-76
2020/12/29 09:54:04;;;;;;;17.90;12.27;;;;;;;;;;5047277;28;20288;-75
2020/12/29 09:56:30;;;;;;;17.20;12.23;;;;;;;;;;5054319;28;20205;-75
2020/12/29 09:58:56;;;;;;;19.30;12.87;;;;;;;;;;5052339;28;20186;-76
2020/12/29 10:01:21;;;;;;;16.10;11.23;;;;;;;;;;5054547;28;20188;-78
2020/12/29 10:03:46;;;;;;;16.08;11.98;;;;;;;;;;5054091;28;20611;-76
2020/12/29 10:06:13;;;;;;;17.20;11.70;;;;;;;;;;5053393;28;20265;-77
2020/12/29 10:08:38;;;;;;;14.70;11.40;;;;;;;;;;5050987;28;20186;-75
2020/12/29 10:11:05;;;;;;;16.40;11.73;;;;;;;;;;5049485;28;20182;-76
2020/12/29 10:13:30;;;;;;;17.20;11.70;;;;;;;;;;5050214;28;20204;-78
2020/12/29 10:15:55;;;;;;;17.03;12.03;;;;;;;;;;5049786;28;20399;-75
2020/12/29 10:18:20;;;;;;;14.47;11.47;;;;;;;;;;5051263;28;20200;-75
2020/12/29 10:20:45;;;;;;;18.27;13.10;;;;;;;;;;5051263;28;20188;-76
2020/12/29 10:23:11;;;;;;;17.57;13.70;;;;;;;;;;5051374;28;20193;-77
2020/12/29 10:25:36;;;;;;;18.77;13.43;;;;;;;;;;5049221;28;20796;-76
2020/12/29 10:28:02;;;;;;;20.07;13.47;;;;;;;;;;5047764;28;20182;-74
2020/12/29 10:30:27;;;;;;;19.40;13.77;;;;;;;;;;5050670;28;20698;-75
2020/12/29 10:32:52;;;;;;;22.47;15.90;;;;;;;;;;5047960;28;20202;-75
2020/12/29 10:35:17;;;;;;;25.07;16.73;;;;;;;;;;5052971;28;20272;-75
2020/12/29 10:37:42;;;;;;;22.07;16.13;;;;;;;;;;5050334;28;20198;-75
2020/12/29 10:40:08;;;;;;;22.97;16.40;;;;;;;;;;5049554;28;20170;-74
2020/12/29 10:42:33;;;;;;;23.87;17.30;;;;;;;;;;5050281;28;20204;-75
2020/12/29 10:44:58;;;;;;;28.23;18.67;;;;;;;;;;5047909;28;20190;-76
2020/12/29 10:47:23;;;;;;;28.43;18.87;;;;;;;;;;5051040;28;20666;-74
2020/12/29 10:49:49;;;;;;;24.87;19.13;;;;;;;;;;5055671;28;20188;-75
2020/12/29 10:52:14;;;;;;;28.07;20.77;;;;;;;;;;5049814;28;20190;-75
2020/12/29 10:54:39;;;;;;;27.57;19.40;;;;;;;;;;5053107;28;20678;-75
2020/12/29 10:57:04;;;;;;;31.70;20.93;;;;;;;;;;5050468;28;20181;-75
2020/12/29 10:59:29;;;;;;;28.20;20.43;;;;;;;;;;5049369;28;20298;-76
2020/12/29 11:01:57;;;;;;;26.73;21.00;;;;;;;;;;5051997;28;20184;-76
2020/12/29 11:04:23;;;;;;;27.63;21.37;;;;;;;;;;5052133;28;20319;-76
2020/12/29 11:06:48;;;;;;;30.87;21.37;;;;;;;;;;5049895;28;20256;-76
2020/12/29 11:09:13;;;;;;;29.80;21.60;;;;;;;;;;5051820;28;20272;-74
2020/12/29 11:11:38;;;;;;;27.07;19.23;;;;;;;;;;5054395;28;20177;-75
2020/12/29 11:14:03;;;;;;;28.03;20.37;;;;;;;;;;5052660;28;20355;-74
2020/12/29 11:16:29;;;;;;;27.37;20.87;;;;;;;;;;5050694;28;20208;-74
2020/12/29 11:18:54;;;;;;;30.13;21.30;;;;;;;;;;5051481;28;20178;-75
2020/12/29 11:21:20;;;;;;;29.63;21.13;;;;;;;;;;5052917;28;20260;-75
2020/12/29 11:23:45;;;;;;;26.13;19.50;;;;;;;;;;5046770;28;20194;-75
2020/12/29 11:26:17;;;;;;;25.07;19.10;;;;;;;;;;5053089;28;20669;-74
2020/12/29 11:28:42;;;;;;;22.67;16.90;;;;;;;;;;5045469;28;20247;-78
2020/12/29 11:31:18;;;;;;;21.13;16.10;;;;;;;;;;5048705;28;20189;-76
2020/12/29 11:33:43;;;;;;;18.47;14.77;;;;;;;;;;5048172;28;20224;-76
2020/12/29 11:36:09;;;;;;;17.80;14.83;;;;;;;;;;5047558;28;20209;-76
2020/12/29 11:38:34;;;;;;;21.47;15.30;;;;;;;;;;5046859;28;20269;-76
2020/12/29 11:40:59;;;;;;;22.57;15.43;;;;;;;;;;5049502;28;20258;-76
2020/12/29 11:43:24;;;;;;;20.37;14.93;;;;;;;;;;5052180;28;20198;-77
2020/12/29 11:45:49;;;;;;;17.10;13.43;;;;;;;;;;5050426;28;20386;-76
2020/12/29 11:48:15;;;;;;;16.03;12.83;;;;;;;;;;5052114;28;20182;-77
2020/12/29 11:50:40;;;;;;;16.47;12.70;;;;;;;;;;5046432;28;20178;-76
2020/12/29 11:53:05;;;;;;;17.97;14.17;;;;;;;;;;5052007;28;20190;-77
2020/12/29 11:55:30;;;;;;;17.00;12.47;;;;;;;;;;5044644;28;20282;-76
2020/12/29 11:57:55;;;;;;;16.20;10.57;;;;;;;;;;5049630;28;20231;-76
2020/12/29 12:00:21;;;;;;;11.67;9.43;;;;;;;;;;5050338;28;20573;-76
2020/12/29 12:02:46;;;;;;;11.20;9.17;;;;;;;;;;5049485;28;20571;-76
2020/12/29 12:05:12;;;;;;;9.83;8.73;;;;;;;;;;5049924;28;20177;-75
2020/12/29 12:07:38;;;;;;;10.33;8.97;;;;;;;;;;5051763;28;20170;-75
2020/12/29 12:10:04;;;;;;;12.03;9.07;;;;;;;;;;5046962;28;20182;-77
2020/12/29 12:12:29;;;;;;;11.63;10.43;;;;;;;;;;5060289;28;20173;-76
2020/12/29 12:14:54;;;;;;;10.07;8.93;;;;;;;;;;5049286;28;20579;-76
2020/12/29 12:17:19;;;;;;;11.63;8.97;;;;;;;;;;5047770;28;20181;-75
2020/12/29 12:19:44;;;;;;;9.33;7.37;;;;;;;;;;5049318;28;20181;-76
2020/12/29 12:22:10;;;;;;;12.23;8.47;;;;;;;;;;5048510;28;20726;-76
2020/12/29 12:24:35;;;;;;;11.20;8.30;;;;;;;;;;5049406;28;20608;-76
2020/12/29 12:27:00;;;;;;;11.27;8.97;;;;;;;;;;5049883;28;20186;-75
2020/12/29 12:29:25;;;;;;;13.13;9.30;;;;;;;;;;5051562;28;20238;-75
2020/12/29 12:31:50;;;;;;;12.43;10.13;;;;;;;;;;5047952;28;20189;-75
2020/12/29 12:34:16;;;;;;;13.80;10.33;;;;;;;;;;5047914;28;20209;-77
2020/12/29 12:36:41;;;;;;;14.40;10.53;;;;;;;;;;5049258;28;20205;-75
2020/12/29 12:39:06;;;;;;;13.67;10.90;;;;;;;;;;5044498;28;20181;-75
2020/12/29 12:41:31;;;;;;;12.67;9.57;;;;;;;;;;5049028;28;20273;-75
2020/12/29 12:43:57;;;;;;;14.20;10.20;;;;;;;;;;5050181;28;20205;-75
2020/12/29 12:46:22;;;;;;;12.43;10.67;;;;;;;;;;5047881;28;20231;-75
2020/12/29 12:48:47;;;;;;;12.33;9.50;;;;;;;;;;5049503;28;20778;-75
2020/12/29 12:51:13;;;;;;;14.90;10.50;;;;;;;;;;5049890;28;20178;-76
2020/12/29 12:53:40;;;;;;;14.40;10.13;;;;;;;;;;5051072;28;20202;-76
2020/12/29 12:56:10;;;;;;;14.70;9.80;;;;;;;;;;5053554;28;20276;-76
2020/12/29 12:58:35;;;;;;;12.37;10.33;;;;;;;;;;5053849;28;20177;-75
2020/12/29 13:01:00;;;;;;;11.27;9.17;;;;;;;;;;5052098;28;20595;-76
2020/12/29 13:03:25;;;;;;;14.27;9.63;;;;;;;;;;5054141;28;20193;-76
2020/12/29 13:05:51;;;;;;;13.10;7.93;;;;;;;;;;5053095;28;20206;-75
2020/12/29 13:08:16;;;;;;;10.30;8.03;;;;;;;;;;5053556;28;20212;-75
2020/12/29 13:10:42;;;;;;;11.23;7.47;;;;;;;;;;5063160;28;20330;-75
2020/12/29 13:13:08;;;;;;;9.63;6.93;;;;;;;;;;5042745;28;20214;-75
2020/12/29 13:15:33;;;;;;;8.23;7.00;;;;;;;;;;5046460;28;20228;-75
2020/12/29 13:17:59;;;;;;;12.33;6.57;;;;;;;;;;5045558;28;20664;-76
2020/12/29 13:20:24;;;;;;;8.20;6.43;;;;;;;;;;5048460;28;20277;-76
2020/12/29 13:22:50;;;;;;;8.97;6.33;;;;;;;;;;5046076;28;20267;-75
2020/12/29 13:25:15;;;;;;;7.00;5.63;;;;;;;;;;5046150;28;21173;-75
2020/12/29 13:27:40;;;;;;;9.13;6.30;;;;;;;;;;5045996;28;20700;-75
2020/12/29 13:30:05;;;;;;;8.47;6.00;;;;;;;;;;5050757;28;20186;-75
2020/12/29 13:32:31;;;;;;;7.03;5.50;;;;;;;;;;5045231;28;20184;-75
2020/12/29 13:34:56;;;;;;;9.73;6.43;;;;;;;;;;5050652;28;20250;-75
2020/12/29 13:37:21;;;;;;;8.77;6.40;;;;;;;;;;5042119;28;20205;-75
2020/12/29 13:39:46;;;;;;;8.43;6.47;;;;;;;;;;5048304;28;20181;-75
2020/12/29 13:42:11;;;;;;;9.30;6.63;;;;;;;;;;5045073;28;20234;-75
2020/12/29 13:44:37;;;;;;;9.87;7.10;;;;;;;;;;5048593;28;20702;-75
2020/12/29 13:47:03;;;;;;;11.90;7.40;;;;;;;;;;5048533;28;20592;-75
2020/12/29 13:49:28;;;;;;;10.03;7.57;;;;;;;;;;5049597;28;20374;-75
2020/12/29 13:51:53;;;;;;;13.20;7.03;;;;;;;;;;5049429;28;20178;-75
2020/12/29 13:54:18;;;;;;;10.70;8.00;;;;;;;;;;5050359;28;20200;-75
2020/12/29 13:56:43;;;;;;;10.13;7.70;;;;;;;;;;5047566;28;20264;-76
2020/12/29 13:59:11;;;;;;;8.73;7.47;;;;;;;;;;5047690;28;20236;-76
2020/12/29 14:01:37;;;;;;;12.57;8.43;;;;;;;;;;5044528;28;20643;-75
2020/12/29 14:04:02;;;;;;;11.20;7.63;;;;;;;;;;5046639;28;20194;-75
2020/12/29 14:06:27;;;;;;;11.90;7.13;;;;;;;;;;5050130;28;20658;-76
2020/12/29 14:08:53;;;;;;;11.13;7.03;;;;;;;;;;5047144;28;20743;-76
2020/12/29 14:11:20;;;;;;;12.33;7.60;;;;;;;;;;5058727;28;20191;-77